Time;durP1;ratioP1;P1;durP2;ratioP2;P2;SDS_P1;SDS_P2;PMS_P1;PMS_P2;Temp;Humidity;BMP_temperature;BMP_pressure;BME280_temperature;BME280_humidity;BME280_pressure;Samples;Min_cycle;Max_cycle;Signal;HPM_P1;HPM_P2
2022/08/24 00:01:46;;;;;;;;;;;;;;;23.77;77.57;101340.56;7290715;19;151879;-61
2022/08/24 00:04:13;;;;;;;;;;;;;;;23.75;77.44;101347.72;7285696;19;153113;-61
2022/08/24 00:06:45;;;;;;;;;;;;;;;23.78;77.43;101350.72;7290147;19;154746;-61
2022/08/24 00:09:12;;;;;;;;;;;;;;;23.75;77.81;101353.34;7288614;19;152174;-61
2022/08/24 00:11:39;;;;;;;;;;;;;;;23.72;78.18;101348.31;7291654;19;153714;-61
2022/08/24 00:14:07;;;;;;;;;;;;;;;23.71;77.55;101346.69;7288155;19;154628;-61
2022/08/24 00:16:39;;;;;;;;;;;;;;;23.77;77.81;101351.84;7291108;19;152083;-61
2022/08/24 00:19:10;;;;;;;;;;;;;;;23.73;77.97;101345.19;7286053;19;151997;-61
2022/08/24 00:21:37;;;;;;;;;;;;;;;23.72;77.94;101337.88;7295862;19;154078;-61
2022/08/24 00:24:05;;;;;;;;;;;;;;;23.78;77.99;101345.06;7290035;19;153387;-61
2022/08/24 00:26:40;;;;;;;;;;;;;;;23.75;78.34;101350.53;7287205;19;157353;-61
2022/08/24 00:29:10;;;;;;;;;;;;;;;23.69;78.35;101346.16;7288547;19;151843;-61
2022/08/24 00:31:38;;;;;;;;;;;;;;;23.69;78.46;101360.25;7289331;19;152424;-61
2022/08/24 00:34:06;;;;;;;;;;;;;;;23.74;78.11;101351.69;7285415;19;153678;-61
2022/08/24 00:36:38;;;;;;;;;;;;;;;23.76;77.51;101352.16;7289254;19;151900;-61
2022/08/24 00:39:08;;;;;;;;;;;;;;;23.76;77.71;101355.84;7288743;19;151648;-61
2022/08/24 00:41:38;;;;;;;;;;;;;;;23.76;77.14;101350.19;7288844;19;154212;-61
2022/08/24 00:44:05;;;;;;;;;;;;;;;23.78;78.10;101349.88;7296370;19;152115;-61
2022/08/24 00:46:42;;;;;;;;;;;;;;;23.72;78.33;101342.69;7288959;19;152131;-60
2022/08/24 00:49:20;;;;;;;;;;;;;;;23.79;78.01;101334.63;7286381;19;153047;-61
2022/08/24 00:51:54;;;;;;;;;;;;;;;23.70;78.51;101339.38;7288749;19;154357;-61
2022/08/24 00:54:25;;;;;;;;;;;;;;;23.74;78.05;101329.94;7287620;19;153441;-61
2022/08/24 00:56:55;;;;;;;;;;;;;;;23.78;77.96;101341.41;7290299;19;152193;-61
2022/08/24 00:59:31;;;;;;;;;;;;;;;23.74;78.50;101334.75;7288010;19;152459;-61
2022/08/24 01:02:02;;;;;;;;;;;;;;;23.68;78.99;101334.03;7287709;19;152865;-60
2022/08/24 01:04:51;;;;;;;;;;;;;;;23.68;79.17;101330.38;7285080;19;153805;-60
2022/08/24 01:07:23;;;;;;;;;;;;;;;23.73;78.46;101328.25;7296164;19;153477;-61
2022/08/24 01:09:52;;;;;;;;;;;;;;;23.73;78.38;101325.44;7286388;19;153724;-61
2022/08/24 01:12:20;;;;;;;;;;;;;;;23.68;78.92;101338.84;7288422;19;153052;-60
2022/08/24 01:14:47;;;;;;;;;;;;;;;23.76;77.98;101333.25;7287220;19;153346;-61
2022/08/24 01:20:07;;;;;;;;;;;;;;;23.71;78.51;101335.41;7286523;19;153527;-61
2022/08/24 01:22:48;;;;;;;;;;;;;;;23.67;78.82;101334.34;7287601;19;153194;-60
2022/08/24 01:25:16;;;;;;;;;;;;;;;23.66;78.46;101338.34;7289004;19;152126;-61
2022/08/24 01:27:44;;;;;;;;;;;;;;;23.69;78.29;101348.97;7285997;19;152286;-61
2022/08/24 01:30:14;;;;;;;;;;;;;;;23.74;78.19;101343.22;7293154;19;153783;-60
2022/08/24 01:32:51;;;;;;;;;;;;;;;23.72;77.94;101345.50;7288211;19;153133;-60
2022/08/24 01:35:18;;;;;;;;;;;;;;;23.73;78.51;101341.53;7284204;19;152976;-61
2022/08/24 01:37:45;;;;;;;;;;;;;;;23.73;77.95;101344.34;7288096;19;151889;-61
2022/08/24 01:40:12;;;;;;;;;;;;;;;23.72;77.87;101337.88;7288357;19;151990;-61
2022/08/24 01:42:45;;;;;;;;;;;;;;;23.74;77.51;101346.03;7287110;19;153374;-61
2022/08/24 01:45:12;;;;;;;;;;;;;;;23.68;78.03;101344.47;7288560;19;152776;-61
2022/08/24 01:47:40;;;;;;;;;;;;;;;23.65;78.01;101336.66;7287443;19;154078;-61
2022/08/24 01:50:07;;;;;;;;;;;;;;;23.69;78.07;101329.22;7290531;19;154314;-61
2022/08/24 01:52:34;;;;;;;;;;;;;;;23.76;77.38;101340.88;7288406;19;153270;-61
2022/08/24 01:55:22;;;;;;;;;;;;;;;23.72;77.73;101331.41;7286437;19;152532;-61
2022/08/24 01:57:49;;;;;;;;;;;;;;;23.71;77.91;101332.56;7287023;19;152787;-60
2022/08/24 02:00:16;;;;;;;;;;;;;;;23.71;77.86;101332.56;7285999;19;152330;-61
2022/08/24 02:02:43;;;;;;;;;;;;;;;23.66;78.17;101336.34;7286499;19;152475;-61
2022/08/24 02:05:12;;;;;;;;;;;;;;;23.64;77.86;101335.00;7282918;19;152360;-61
2022/08/24 02:07:39;;;;;;;;;;;;;;;23.73;77.70;101344.34;7287051;19;153495;-61
2022/08/24 02:10:08;;;;;;;;;;;;;;;23.66;77.54;101342.00;7284450;19;152763;-61
2022/08/24 02:12:38;;;;;;;;;;;;;;;23.70;77.60;101339.38;7293616;19;152268;-61
2022/08/24 02:15:07;;;;;;;;;;;;;;;23.79;76.94;101348.72;7285959;19;154060;-61
2022/08/24 02:17:34;;;;;;;;;;;;;;;23.73;77.52;101350.00;7286851;19;152520;-61
2022/08/24 02:20:04;;;;;;;;;;;;;;;23.69;77.68;101355.47;7285320;19;153567;-61
2022/08/24 02:22:31;;;;;;;;;;;;;;;23.68;77.47;101347.31;7283344;19;153366;-60
2022/08/24 02:24:58;;;;;;;;;;;;;;;23.69;78.28;101355.47;7287727;19;153672;-61
2022/08/24 02:27:25;;;;;;;;;;;;;;;23.67;77.86;101349.28;7285567;19;153531;-60
2022/08/24 02:29:52;;;;;;;;;;;;;;;23.69;77.95;101352.63;7282306;19;153676;-61
2022/08/24 02:32:19;;;;;;;;;;;;;;;23.65;78.06;101350.78;7284934;19;151523;-61
2022/08/24 02:34:46;;;;;;;;;;;;;;;23.65;77.85;101359.25;7287032;19;152456;-61
2022/08/24 02:37:13;;;;;;;;;;;;;;;23.73;77.52;101350.84;7286317;19;152333;-61
2022/08/24 02:39:40;;;;;;;;;;;;;;;23.66;78.00;101352.44;7282902;19;152781;-60
2022/08/24 02:42:07;;;;;;;;;;;;;;;23.73;77.84;101352.81;7280723;19;154781;-61
2022/08/24 02:44:34;;;;;;;;;;;;;;;23.65;77.65;101362.06;7282364;19;152700;-61
2022/08/24 02:47:02;;;;;;;;;;;;;;;23.73;77.26;101359.31;7284770;19;152760;-61
2022/08/24 02:49:29;;;;;;;;;;;;;;;23.64;77.72;101355.59;7277701;19;154554;-61
2022/08/24 02:51:56;;;;;;;;;;;;;;;23.63;77.65;101355.88;7281158;19;152054;-61
2022/08/24 02:54:23;;;;;;;;;;;;;;;23.63;77.78;101350.25;7282579;19;152549;-61
2022/08/24 02:56:50;;;;;;;;;;;;;;;23.69;77.36;101348.97;7288796;19;153294;-60
2022/08/24 02:59:17;;;;;;;;;;;;;;;23.68;76.88;101345.31;7283422;19;153255;-61
2022/08/24 03:01:44;;;;;;;;;;;;;;;23.71;76.56;101353.13;7279449;19;154679;-61
2022/08/24 03:04:12;;;;;;;;;;;;;;;23.66;77.46;101347.66;7281171;19;153194;-61
2022/08/24 03:06:39;;;;;;;;;;;;;;;23.71;77.09;101349.50;7284205;19;152953;-61
2022/08/24 03:09:06;;;;;;;;;;;;;;;23.68;77.19;101352.94;7280745;19;154725;-60
2022/08/24 03:11:33;;;;;;;;;;;;;;;23.66;77.37;101346.81;7282597;19;152195;-61
2022/08/24 03:14:00;;;;;;;;;;;;;;;23.63;77.17;101351.09;7281608;19;154170;-61
2022/08/24 03:16:28;;;;;;;;;;;;;;;23.65;77.30;101348.78;7282936;19;153735;-61
2022/08/24 03:18:54;;;;;;;;;;;;;;;23.64;77.22;101355.59;7288888;19;152057;-61
2022/08/24 03:21:22;;;;;;;;;;;;;;;23.77;76.43;101353.84;7281016;19;153160;-61
2022/08/24 03:23:48;;;;;;;;;;;;;;;23.66;76.95;101350.47;7280463;19;152188;-60
2022/08/24 03:26:15;;;;;;;;;;;;;;;23.66;77.16;101350.47;7282470;19;154172;-60
2022/08/24 03:28:42;;;;;;;;;;;;;;;23.63;77.53;101348.25;7281412;19;154345;-61
2022/08/24 03:31:11;;;;;;;;;;;;;;;23.72;76.41;101348.31;7280372;19;152659;-60
2022/08/24 03:33:38;;;;;;;;;;;;;;;23.66;76.98;101353.28;7282369;19;153869;-61
2022/08/24 03:36:05;;;;;;;;;;;;;;;23.65;76.91;101350.78;7279295;19;153858;-60
2022/08/24 03:38:36;;;;;;;;;;;;;;;23.65;77.07;101342.31;7281799;19;152133;-61
2022/08/24 03:41:03;;;;;;;;;;;;;;;23.66;76.72;101350.47;7285899;19;153738;-61
2022/08/24 03:43:45;;;;;;;;;;;;;;;23.68;76.84;101347.31;7283153;19;152591;-61
2022/08/24 03:46:13;;;;;;;;;;;;;;;23.66;76.55;101350.47;7280786;19;152759;-61
2022/08/24 03:48:41;;;;;;;;;;;;;;;23.66;76.72;101344.00;7280086;19;153701;-61
2022/08/24 03:51:12;;;;;;;;;;;;;;;23.65;77.13;101345.13;7277478;19;152679;-61
2022/08/24 03:53:39;;;;;;;;;;;;;;;23.63;77.04;101339.81;7279172;19;154514;-60
2022/08/24 03:56:10;;;;;;;;;;;;;;;23.62;76.80;101340.13;7281756;19;155656;-61
2022/08/24 03:58:37;;;;;;;;;;;;;;;23.68;76.65;101334.03;7281196;19;152435;-61
2022/08/24 04:01:05;;;;;;;;;;;;;;;23.65;76.72;101347.94;7281290;19;152241;-61
2022/08/24 04:03:37;;;;;;;;;;;;;;;23.64;76.79;101349.09;7280829;19;153427;-61
2022/08/24 04:06:07;;;;;;;;;;;;;;;23.71;76.38;101347.50;7277635;19;152110;-61
2022/08/24 04:08:37;;;;;;;;;;;;;;;23.71;76.42;101346.69;7286519;19;152817;-61
2022/08/24 04:11:05;;;;;;;;;;;;;;;23.69;76.69;101351.81;7286392;19;151964;-61
2022/08/24 04:13:31;;;;;;;;;;;;;;;23.72;76.17;101345.50;7287890;19;152330;-61
2022/08/24 04:16:03;;;;;;;;;;;;;;;23.65;76.58;101353.59;7286577;19;154327;-60
2022/08/24 04:18:30;;;;;;;;;;;;;;;23.62;76.80;101343.78;7287460;19;152169;-61
2022/08/24 04:20:57;;;;;;;;;;;;;;;23.59;76.95;101335.13;7284629;19;152952;-60
2022/08/24 04:23:24;;;;;;;;;;;;;;;23.59;76.59;101340.75;7293799;19;153236;-60
2022/08/24 04:26:11;;;;;;;;;;;;;;;23.65;76.42;101345.13;7287177;19;156100;-61
2022/08/24 04:28:38;;;;;;;;;;;;;;;23.60;76.58;101342.44;7286774;19;154247;-60
2022/08/24 04:31:05;;;;;;;;;;;;;;;23.63;76.22;101348.25;7285658;19;151969;-61
2022/08/24 04:33:32;;;;;;;;;;;;;;;23.62;76.77;101348.59;7288247;19;152644;-61
2022/08/24 04:35:59;;;;;;;;;;;;;;;23.64;76.51;101361.22;7283649;19;153402;-61
2022/08/24 04:38:27;;;;;;;;;;;;;;;23.58;77.25;101347.53;7285717;19;152488;-61
2022/08/24 04:40:54;;;;;;;;;;;;;;;23.65;76.42;101343.16;7286904;19;152864;-60
2022/08/24 04:43:25;;;;;;;;;;;;;;;23.60;76.83;101342.44;7286490;19;153756;-61
2022/08/24 04:45:52;;;;;;;;;;;;;;;23.60;77.25;101348.91;7293974;19;151953;-61
2022/08/24 04:48:19;;;;;;;;;;;;;;;23.68;76.34;101361.41;7284627;19;153655;-61
2022/08/24 04:50:46;;;;;;;;;;;;;;;23.57;77.01;101365.66;7283753;19;152202;-61
2022/08/24 04:53:13;;;;;;;;;;;;;;;23.61;76.97;101356.22;7286407;19;153547;-61
2022/08/24 04:55:44;;;;;;;;;;;;;;;23.57;76.83;101362.84;7284760;19;153690;-61
2022/08/24 04:58:12;;;;;;;;;;;;;;;23.63;76.15;101365.19;7287492;19;152310;-61
2022/08/24 05:00:39;;;;;;;;;;;;;;;23.61;76.54;101369.50;7286649;19;152719;-61
2022/08/24 05:03:06;;;;;;;;;;;;;;;23.61;77.01;101359.06;7285982;19;153835;-61
2022/08/24 05:05:33;;;;;;;;;;;;;;;23.63;76.42;101367.19;7281283;19;152471;-61
2022/08/24 05:08:00;;;;;;;;;;;;;;;23.62;76.72;101359.88;7292022;19;152100;-61
2022/08/24 05:10:27;;;;;;;;;;;;;;;23.60;76.75;101371.47;7286578;19;153046;-61
2022/08/24 05:12:59;;;;;;;;;;;;;;;23.62;76.60;101371.19;7285103;19;152743;-61
2022/08/24 05:15:26;;;;;;;;;;;;;;;23.60;77.06;101374.31;7285227;19;152740;-60
2022/08/24 05:17:53;;;;;;;;;;;;;;;23.74;76.22;101368.59;7284814;19;152157;-60
2022/08/24 05:20:20;;;;;;;;;;;;;;;23.63;76.52;101364.34;7283407;19;153252;-60
2022/08/24 05:22:47;;;;;;;;;;;;;;;23.62;76.68;101376.81;7283923;19;153675;-61
2022/08/24 05:25:18;;;;;;;;;;;;;;;23.63;76.97;101375.63;7286438;19;152664;-60
2022/08/24 05:27:46;;;;;;;;;;;;;;;23.61;76.90;101381.63;7285223;19;153896;-61
2022/08/24 05:30:13;;;;;;;;;;;;;;;23.58;77.27;101381.41;7293154;19;153956;-61
2022/08/24 05:32:40;;;;;;;;;;;;;;;23.54;77.45;101381.22;7283634;19;152876;-61
2022/08/24 05:35:07;;;;;;;;;;;;;;;23.58;77.02;101390.69;7282708;19;152677;-61
2022/08/24 05:37:37;;;;;;;;;;;;;;;23.54;77.51;101386.00;7285391;19;151992;-61
2022/08/24 05:40:07;;;;;;;;;;;;;;;23.63;77.11;101393.41;7286244;19;152851;-61
2022/08/24 05:42:34;;;;;;;;;;;;;;;23.51;77.28;101381.84;7284744;19;154071;-61
2022/08/24 05:45:01;;;;;;;;;;;;;;;23.58;77.16;101387.03;7285744;19;153376;-61
2022/08/24 05:47:28;;;;;;;;;;;;;;;23.58;77.15;101392.69;7286021;19;153278;-61
2022/08/24 05:49:55;;;;;;;;;;;;;;;23.53;77.80;101398.47;7281598;19;153073;-61
2022/08/24 05:52:22;;;;;;;;;;;;;;;23.53;77.80;101390.00;7290883;19;151691;-61
2022/08/24 05:54:53;;;;;;;;;;;;;;;23.51;78.04;101389.47;7283245;19;153936;-61
2022/08/24 05:57:21;;;;;;;;;;;;;;;23.51;77.39;101398.78;7285525;19;152636;-61
2022/08/24 05:59:49;;;;;;;;;;;;;;;23.56;77.90;101395.84;7284671;19;152812;-61
2022/08/24 06:02:16;;;;;;;;;;;;;;;23.51;77.83;101400.75;7283263;19;153337;-61
2022/08/24 06:04:43;;;;;;;;;;;;;;;23.56;77.27;101403.47;7280797;19;152529;-61
2022/08/24 06:07:10;;;;;;;;;;;;;;;23.57;77.91;101413.59;7284566;19;152638;-61
2022/08/24 06:09:38;;;;;;;;;;;;;;;23.53;78.06;101412.56;7284471;19;153546;-60
2022/08/24 06:12:07;;;;;;;;;;;;;;;23.55;77.99;101411.09;7290860;19;151947;-61
2022/08/24 06:14:34;;;;;;;;;;;;;;;23.55;77.51;101411.09;7281936;19;154718;-61
2022/08/24 06:17:02;;;;;;;;;;;;;;;23.48;78.20;101419.97;7284774;19;154221;-61
2022/08/24 06:19:29;;;;;;;;;;;;;;;23.53;77.86;101427.50;7279540;19;153878;-64
2022/08/24 06:21:56;;;;;;;;;;;;;;;23.51;77.90;101431.78;7280776;19;154228;-61
2022/08/24 06:27:20;;;;;;;;;;;;;;;23.60;77.64;101427.06;7283909;19;153348;-61
2022/08/24 06:29:50;;;;;;;;;;;;;;;23.58;78.00;101430.19;7281382;19;154056;-60
2022/08/24 06:32:17;;;;;;;;;;;;;;;23.58;77.50;101432.19;7282403;19;152135;-61
2022/08/24 06:34:44;;;;;;;;;;;;;;;23.53;77.91;101427.50;7287026;19;152638;-61
2022/08/24 06:37:11;;;;;;;;;;;;;;;23.49;78.33;101432.94;7282914;19;152434;-61
2022/08/24 06:39:37;;;;;;;;;;;;;;;23.56;77.83;101432.50;7282148;19;153363;-61
2022/08/24 06:42:04;;;;;;;;;;;;;;;23.49;78.12;101435.75;7283655;19;153831;-61
2022/08/24 06:44:31;;;;;;;;;;;;;;;23.56;77.84;101434.50;7280682;19;152353;-61
2022/08/24 06:46:58;;;;;;;;;;;;;;;23.59;77.65;101434.69;7284308;19;152145;-61
2022/08/24 06:49:25;;;;;;;;;;;;;;;23.59;77.79;101434.69;7277749;19;152229;-61
2022/08/24 06:51:51;;;;;;;;;;;;;;;23.56;77.66;101440.16;7282761;19;152467;-61
2022/08/24 06:54:21;;;;;;;;;;;;;;;23.51;77.66;101438.28;7281900;19;153583;-61
2022/08/24 06:56:48;;;;;;;;;;;;;;;23.50;78.31;101445.06;7291023;19;154178;-61
2022/08/24 06:59:14;;;;;;;;;;;;;;;23.55;78.69;101444.94;7281592;19;155233;-61
2022/08/24 07:01:41;;;;;;;;;;;;;;;23.51;78.48;101437.44;7282989;19;154713;-61
2022/08/24 07:04:08;;;;;;;;;;;;;;;23.53;78.41;101449.25;7280189;19;152426;-61
2022/08/24 07:06:36;;;;;;;;;;;;;;;23.54;78.22;101448.06;7280646;19;152934;-61
2022/08/24 07:09:04;;;;;;;;;;;;;;;23.52;78.77;101450.38;7277681;19;152601;-61
2022/08/24 07:11:33;;;;;;;;;;;;;;;23.55;78.42;101444.09;7282937;19;152106;-61
2022/08/24 07:14:00;;;;;;;;;;;;;;;23.50;78.66;101447.88;7281367;19;153677;-61
2022/08/24 07:16:27;;;;;;;;;;;;;;;23.51;78.64;101438.28;7281538;19;152383;-61
2022/08/24 07:18:54;;;;;;;;;;;;;;;23.52;78.40;101447.56;7285844;19;152497;-60
2022/08/24 07:21:21;;;;;;;;;;;;;;;23.52;78.58;101444.75;7280688;19;155441;-61
2022/08/24 07:23:48;;;;;;;;;;;;;;;23.56;78.97;101446.63;7279408;19;151916;-61
2022/08/24 07:26:18;;;;;;;;;;;;;;;23.57;77.82;101444.63;7282770;19;153579;-61
2022/08/24 07:28:48;;;;;;;;;;;;;;;23.54;78.07;101451.72;7281190;19;154059;-61
2022/08/24 07:31:15;;;;;;;;;;;;;;;23.59;77.56;101459.25;7281855;19;153528;-61
2022/08/24 07:33:42;;;;;;;;;;;;;;;23.59;78.30;101448.78;7278265;19;153437;-61
2022/08/24 07:36:08;;;;;;;;;;;;;;;23.59;77.85;101467.72;7278628;19;154033;-61
2022/08/24 07:38:38;;;;;;;;;;;;;;;23.58;77.77;101461.22;7282284;19;152889;-61
2022/08/24 07:41:04;;;;;;;;;;;;;;;23.63;77.17;101463.94;7286757;19;152678;-61
2022/08/24 07:43:51;;;;;;;;;;;;;;;23.66;77.22;101473.78;7288673;19;152686;-61
2022/08/24 07:46:18;;;;;;;;;;;;;;;23.65;77.40;101478.56;7288992;19;152419;-60
2022/08/24 07:48:45;;;;;;;;;;;;;;;23.61;78.04;101476.69;7288070;19;153462;-61
2022/08/24 07:51:13;;;;;;;;;;;;;;;23.59;77.88;101474.19;7286344;19;152347;-61
2022/08/24 07:53:40;;;;;;;;;;;;;;;23.60;78.12;101477.84;7287038;19;153076;-61
2022/08/24 07:56:19;;;;;;;;;;;;;;;23.57;77.61;101468.03;7288075;19;154280;-60
2022/08/24 07:58:46;;;;;;;;;;;;;;;23.58;77.73;101463.22;7286431;19;151746;-61
2022/08/24 08:01:12;;;;;;;;;;;;;;;23.65;77.46;101472.09;7286830;19;152950;-61
2022/08/24 08:03:40;;;;;;;;;;;;;;;23.58;78.20;101471.66;7293994;19;152884;-60
2022/08/24 08:06:07;;;;;;;;;;;;;;;23.61;77.77;101466.25;7282625;19;152568;-61
2022/08/24 08:08:42;;;;;;;;;;;;;;;23.58;77.61;101472.50;7286967;19;153392;-61
2022/08/24 08:11:09;;;;;;;;;;;;;;;23.61;77.64;101476.69;7287622;19;152956;-61
2022/08/24 08:13:36;;;;;;;;;;;;;;;23.66;77.18;101473.78;7285527;19;153846;-61
2022/08/24 08:16:03;;;;;;;;;;;;;;;23.61;77.97;101468.25;7287740;19;154629;-61
2022/08/24 08:18:34;;;;;;;;;;;;;;;23.60;77.75;101466.56;7288127;19;152054;-61
2022/08/24 08:21:01;;;;;;;;;;;;;;;23.64;77.66;101481.69;7285573;19;153507;-61
2022/08/24 08:26:16;;;;;;;;;;;;;;;23.68;77.47;101494.03;7286889;19;152492;-61
2022/08/24 08:28:43;;;;;;;;;;;;;;;23.68;76.91;101491.19;7286445;19;154082;-61
2022/08/24 08:31:10;;;;;;;;;;;;;;;23.67;77.62;101487.53;7287406;19;153206;-61
2022/08/24 08:33:37;;;;;;;;;;;;;;;23.62;77.60;101484.81;7286324;19;153457;-61
2022/08/24 08:36:06;;;;;;;;;;;;;;;23.64;77.23;101484.53;7283899;19;153226;-61
2022/08/24 08:38:35;;;;;;;;;;;;;;;23.60;77.56;101489.97;7286827;19;153612;-61
2022/08/24 08:41:06;;;;;;;;;;;;;;;23.66;77.15;101488.72;7285851;19;153950;-61
2022/08/24 08:43:43;;;;;;;;;;;;;;;23.65;77.29;101480.56;7283196;19;152250;-61
2022/08/24 08:46:09;;;;;;;;;;;;;;;23.68;77.26;101483.56;7294151;19;152531;-61
2022/08/24 08:48:52;;;;;;;;;;;;;;;23.63;77.14;101480.03;7283367;19;155389;-61
2022/08/24 08:51:22;;;;;;;;;;;;;;;23.67;77.17;101479.06;7283883;19;152246;-61
2022/08/24 08:54:12;;;;;;;;;;;;;;;23.74;76.18;101470.19;7281313;19;153975;-61
2022/08/24 08:56:57;;;;;;;;;;;;;;;23.70;76.27;101477.63;7286758;19;153168;-61
2022/08/24 08:59:24;;;;;;;;;;;;;;;23.75;76.22;101488.78;7286615;19;152514;-60
2022/08/24 09:02:06;;;;;;;;;;;;;;;23.72;75.67;101480.94;7286321;19;152594;-61
2022/08/24 09:04:32;;;;;;;;;;;;;;;23.69;76.05;101473.13;7280592;19;152354;-61
2022/08/24 09:07:07;;;;;;;;;;;;;;;23.70;75.75;101478.47;7288388;19;152652;-61
2022/08/24 09:09:34;;;;;;;;;;;;;;;23.67;75.70;101481.06;7292246;19;152125;-61
2022/08/24 09:12:10;;;;;;;;;;;;;;;23.68;76.01;101479.91;7284987;19;152035;-61
2022/08/24 09:14:55;;;;;;;;;;;;;;;23.65;76.10;101481.41;7284719;19;153673;-61
2022/08/24 09:17:42;;;;;;;;;;;;;;;23.67;75.76;101484.72;7287451;19;153999;-61
2022/08/24 09:20:12;;;;;;;;;;;;;;;23.69;75.77;101476.78;7281732;19;152831;-61
2022/08/24 09:22:42;;;;;;;;;;;;;;;23.68;75.48;101472.28;7284680;19;153175;-61
2022/08/24 09:25:15;;;;;;;;;;;;;;;23.73;75.80;101476.97;7283324;19;153986;-61
2022/08/24 09:28:00;;;;;;;;;;;;;;;23.71;75.32;101470.84;7284561;19;152349;-61
2022/08/24 09:30:37;;;;;;;;;;;;;;;23.78;74.95;101469.22;7285990;19;154417;-61
2022/08/24 09:33:20;;;;;;;;;;;;;;;23.79;74.85;101485.03;7291323;19;152788;-61
2022/08/24 09:35:50;;;;;;;;;;;;;;;23.74;74.98;101475.84;7282868;19;152780;-61
2022/08/24 09:38:30;;;;;;;;;;;;;;;23.76;74.97;101480.00;7285203;19;153295;-61
2022/08/24 09:40:58;;;;;;;;;;;;;;;23.77;74.66;101480.81;7283887;19;154784;-61
2022/08/24 09:43:43;;;;;;;;;;;;;;;23.78;74.36;101482.50;7284542;19;152326;-61
2022/08/24 09:46:21;;;;;;;;;;;;;;;23.75;74.55;101478.34;7283900;19;154294;-61
2022/08/24 09:49:04;;;;;;;;;;;;;;;23.76;74.69;101476.34;7284366;19;152560;-61
2022/08/24 09:51:31;;;;;;;;;;;;;;;23.76;74.78;101462.22;7286477;19;152798;-61
2022/08/24 09:53:59;;;;;;;;;;;;;;;23.81;74.38;101473.41;7280539;19;153747;-61
2022/08/24 09:56:26;;;;;;;;;;;;;;;23.77;74.46;101464.75;7293562;19;151891;-61
2022/08/24 09:59:11;;;;;;;;;;;;;;;23.77;74.39;101458.25;7282930;19;152109;-61
2022/08/24 10:01:42;;;;;;;;;;;;;;;23.80;73.78;101460.47;7286613;19;153173;-61
2022/08/24 10:04:21;;;;;;;;;;;;;;;23.81;74.08;101462.09;7280605;19;152905;-61
2022/08/24 10:06:52;;;;;;;;;;;;;;;23.82;73.59;101458.97;7285286;19;154290;-61
2022/08/24 10:09:37;;;;;;;;;;;;;;;23.85;73.80;101460.31;7283928;19;152092;-61
2022/08/24 10:12:13;;;;;;;;;;;;;;;23.89;72.69;101469.84;7284147;19;153526;-61
2022/08/24 10:14:43;;;;;;;;;;;;;;;23.86;73.09;101467.63;7277698;19;153637;-61
2022/08/24 10:17:10;;;;;;;;;;;;;;;23.87;72.49;101467.31;7292839;19;151930;-61
2022/08/24 10:19:52;;;;;;;;;;;;;;;23.89;72.70;101472.66;7279046;19;153965;-61
2022/08/24 10:22:19;;;;;;;;;;;;;;;23.87;72.36;101453.22;7283040;19;152705;-61
2022/08/24 10:25:01;;;;;;;;;;;;;;;23.86;72.70;101459.16;7281669;19;153746;-61
2022/08/24 10:27:28;;;;;;;;;;;;;;;23.88;72.94;101454.06;7283337;19;153954;-61
2022/08/24 10:29:56;;;;;;;;;;;;;;;23.90;72.36;101457.38;7283043;19;152088;-61
2022/08/24 10:32:42;;;;;;;;;;;;;;;23.90;71.79;101440.44;7286268;19;152742;-61
2022/08/24 10:35:14;;;;;;;;;;;;;;;23.97;71.48;101449.31;7278977;19;153497;-61
2022/08/24 10:40:45;;;;;;;;;;;;;;;24.08;70.93;101450.72;7290047;19;152475;-61
2022/08/24 10:43:41;;;;;;;;;;;;;;;24.10;71.23;101456.88;7280822;19;153003;-61
2022/08/24 10:46:20;;;;;;;;;;;;;;;24.11;70.37;101450.09;7282320;19;155286;-61
2022/08/24 10:48:47;;;;;;;;;;;;;;;24.13;69.99;101438.47;7280846;19;152566;-61
2022/08/24 10:51:34;;;;;;;;;;;;;;;24.12;70.44;101437.63;7282490;19;152548;-61
2022/08/24 10:54:03;;;;;;;;;;;;;;;24.19;69.84;101442.88;7278463;19;153219;-61
2022/08/24 10:56:50;;;;;;;;;;;;;;;24.21;69.44;101430.06;7281915;19;156176;-61
2022/08/24 10:59:22;;;;;;;;;;;;;;;24.24;69.10;101425.78;7281819;19;152620;-61
2022/08/24 11:02:08;;;;;;;;;;;;;;;24.20;69.50;101427.59;7284415;19;153835;-61
2022/08/24 11:04:38;;;;;;;;;;;;;;;24.24;69.27;101423.81;7282090;19;152481;-61
2022/08/24 11:07:05;;;;;;;;;;;;;;;24.26;68.97;101426.28;7283284;19;153446;-61
2022/08/24 11:09:55;;;;;;;;;;;;;;;24.32;69.05;101436.31;7281185;19;154556;-61
2022/08/24 11:12:29;;;;;;;;;;;;;;;24.30;68.44;101433.00;7283587;19;152532;-61
2022/08/24 11:15:17;;;;;;;;;;;;;;;24.34;68.60;101417.06;7279294;19;153419;-61
2022/08/24 11:17:55;;;;;;;;;;;;;;;24.32;67.96;101433.47;7277802;19;153107;-61
2022/08/24 11:20:25;;;;;;;;;;;;;;;24.36;67.52;101429.69;7276615;19;153507;-61
2022/08/24 11:23:02;;;;;;;;;;;;;;;24.40;67.14;101420.56;7279690;19;153148;-61
2022/08/24 11:25:31;;;;;;;;;;;;;;;24.38;66.48;101434.19;7280311;19;153529;-61
2022/08/24 11:28:18;;;;;;;;;;;;;;;24.42;66.47;101421.09;7289478;19;152570;-61
2022/08/24 11:30:45;;;;;;;;;;;;;;;24.43;66.41;101423.59;7280997;19;151834;-61
2022/08/24 11:33:24;;;;;;;;;;;;;;;24.41;66.85;101423.06;7280058;19;152011;-61
2022/08/24 11:35:51;;;;;;;;;;;;;;;24.42;66.22;101413.44;7277887;19;153742;-61
2022/08/24 11:38:19;;;;;;;;;;;;;;;24.42;65.84;101424.75;7280642;19;152653;-61
2022/08/24 11:41:21;;;;;;;;;;;;;;;24.48;65.37;101417.81;7281057;19;151684;-61
2022/08/24 11:44:04;;;;;;;;;;;;;;;24.44;65.81;101404.66;7278104;19;152946;-61
2022/08/24 11:46:52;;;;;;;;;;;;;;;24.49;65.48;101407.31;7280768;19;152388;-61
2022/08/24 11:49:25;;;;;;;;;;;;;;;24.47;65.63;101404.00;7277570;19;152699;-61
2022/08/24 11:51:58;;;;;;;;;;;;;;;24.42;66.27;101395.66;7288862;19;152505;-61
2022/08/24 11:54:40;;;;;;;;;;;;;;;24.43;66.03;101395.34;7278097;19;152448;-61
2022/08/24 11:57:08;;;;;;;;;;;;;;;24.42;66.10;101402.16;7282147;19;152800;-61
2022/08/24 11:59:54;;;;;;;;;;;;;;;24.45;65.68;101400.66;7279699;19;152999;-61
2022/08/24 12:02:32;;;;;;;;;;;;;;;24.46;65.91;101391.03;7282311;19;151976;-61
2022/08/24 12:05:00;;;;;;;;;;;;;;;24.47;66.30;101390.72;7274282;19;152540;-61
2022/08/24 12:07:38;;;;;;;;;;;;;;;24.51;65.44;101386.06;7280856;19;153045;-61
2022/08/24 12:10:18;;;;;;;;;;;;;;;24.54;65.36;101393.06;7277827;19;152197;-61
2022/08/24 12:12:57;;;;;;;;;;;;;;;24.55;65.26;101398.38;7282089;19;152393;-61
2022/08/24 12:15:43;;;;;;;;;;;;;;;24.55;64.80;101386.25;7285835;19;153298;-61
2022/08/24 12:18:29;;;;;;;;;;;;;;;24.52;65.28;101399.03;7280804;19;154621;-61
2022/08/24 12:20:56;;;;;;;;;;;;;;;24.51;65.34;101394.53;7277576;19;155598;-61
2022/08/24 12:23:30;;;;;;;;;;;;;;;24.54;64.95;101398.69;7279653;19;152511;-61
2022/08/24 12:26:18;;;;;;;;;;;;;;;24.53;64.88;101394.22;7280188;19;152324;-61
2022/08/24 12:28:54;;;;;;;;;;;;;;;24.54;65.42;101408.00;7280671;19;153841;-62
2022/08/24 12:31:23;;;;;;;;;;;;;;;24.59;64.62;101404.22;7288403;19;153531;-62
2022/08/24 12:33:53;;;;;;;;;;;;;;;24.59;64.70;101390.91;7282544;19;152914;-62
2022/08/24 12:36:24;;;;;;;;;;;;;;;24.62;64.44;101386.63;7292310;19;152657;-62
2022/08/24 12:38:59;;;;;;;;;;;;;;;24.59;64.26;101388.09;7286020;19;153058;-62
2022/08/24 12:41:30;;;;;;;;;;;;;;;24.58;64.12;101386.41;7286598;19;153525;-62
2022/08/24 12:44:14;;;;;;;;;;;;;;;24.60;64.47;101388.94;7284580;19;152147;-62
2022/08/24 12:46:56;;;;;;;;;;;;;;;24.60;64.27;101389.78;7288000;19;153492;-63
2022/08/24 12:49:23;;;;;;;;;;;;;;;24.62;63.99;101387.44;7281439;19;152867;-62
2022/08/24 12:51:50;;;;;;;;;;;;;;;24.64;64.32;101384.28;7287210;19;152180;-62
2022/08/24 12:54:45;;;;;;;;;;;;;;;24.65;64.20;101386.81;7284269;19;154502;-62
2022/08/24 12:57:31;;;;;;;;;;;;;;;24.66;63.77;101384.81;7286120;19;152578;-62
2022/08/24 13:00:04;;;;;;;;;;;;;;;24.66;63.51;101388.47;7290465;19;152542;-62